createdAt,value
2022-08-10T00:00:22.579Z,1.90
2022-08-10T00:01:24.994Z,1.92
2022-08-10T00:02:27.682Z,1.67
2022-08-10T00:03:30.248Z,2.08
2022-08-10T00:04:32.484Z,1.75
2022-08-10T00:05:43.576Z,1.95
2022-08-10T00:06:55.749Z,2.25
2022-08-10T00:07:58.135Z,2.00
2022-08-10T00:09:00.387Z,1.70
2022-08-10T00:10:03.737Z,1.88
2022-08-10T00:11:06.109Z,1.95
2022-08-10T00:12:19.544Z,1.92
2022-08-10T00:13:23.900Z,2.30
2022-08-10T00:14:26.190Z,2.05
2022-08-10T00:15:52.583Z,2.00
2022-08-10T00:16:50.815Z,1.77
2022-08-10T00:17:53.560Z,2.17
2022-08-10T00:18:55.788Z,2.13
2022-08-10T00:20:03.830Z,1.95
2022-08-10T00:21:11.144Z,2.15
2022-08-10T00:22:16.882Z,2.22
2022-08-10T00:23:19.656Z,1.88
2022-08-10T00:24:21.940Z,2.08
2022-08-10T00:25:24.153Z,1.90
2022-08-10T00:26:26.540Z,1.80
2022-08-10T00:28:01.658Z,2.13
2022-08-10T00:29:06.756Z,2.75
2022-08-10T00:30:12.772Z,2.28
2022-08-10T00:31:15.123Z,2.05
2022-08-10T00:32:17.382Z,2.20
2022-08-10T00:33:20.844Z,2.00
2022-08-10T00:34:23.129Z,1.70
2022-08-10T00:35:25.672Z,1.70
2022-08-10T00:36:28.157Z,2.10
2022-08-10T00:37:34.377Z,2.00
2022-08-10T00:38:37.578Z,1.95
2022-08-10T00:39:40.210Z,2.33
2022-08-10T00:40:42.983Z,1.73
2022-08-10T00:41:45.266Z,2.20
2022-08-10T00:42:47.648Z,2.33
2022-08-10T00:43:49.923Z,1.75
2022-08-10T00:44:53.538Z,1.80
2022-08-10T00:45:58.904Z,1.85
2022-08-10T00:47:02.534Z,1.77
2022-08-10T00:48:05.144Z,2.13
2022-08-10T00:49:07.560Z,1.85
2022-08-10T00:50:10.137Z,1.88
2022-08-10T00:51:12.761Z,1.73
2022-08-10T00:52:17.320Z,1.80
2022-08-10T00:53:19.576Z,1.80
2022-08-10T00:54:24.367Z,1.83
2022-08-10T00:55:27.615Z,1.50
2022-08-10T00:56:38.377Z,1.63
2022-08-10T00:57:55.047Z,2.00
2022-08-10T00:58:57.944Z,1.80
2022-08-10T01:00:00.893Z,1.42
2022-08-10T01:01:03.439Z,1.45
2022-08-10T01:02:09.841Z,1.60
2022-08-10T01:03:15.113Z,1.75
2022-08-10T01:04:54.450Z,1.90
2022-08-10T01:06:04.686Z,2.03
2022-08-10T01:07:28.192Z,1.75
2022-08-10T01:08:30.384Z,1.88
2022-08-10T01:09:55.702Z,1.80
2022-08-10T01:12:39.888Z,1.65
2022-08-10T01:12:47.418Z,1.75
2022-08-10T01:14:01.328Z,1.70
2022-08-10T01:15:11.221Z,1.63
2022-08-10T01:16:37.322Z,1.70
2022-08-10T01:17:49.887Z,1.52
2022-08-10T01:19:19.038Z,1.70
2022-08-10T01:20:33.218Z,1.63
2022-08-10T01:22:07.609Z,2.10
2022-08-10T01:23:43.500Z,1.80
2022-08-10T01:25:04.468Z,1.70
2022-08-10T01:26:32.760Z,1.80
2022-08-10T01:28:08.125Z,1.77
2022-08-10T01:29:35.217Z,1.88
2022-08-10T01:30:38.623Z,1.40
2022-08-10T01:31:44.944Z,1.60
2022-08-10T01:32:52.102Z,1.60
2022-08-10T01:34:02.659Z,1.85
2022-08-10T01:35:24.407Z,1.70
2022-08-10T01:36:35.307Z,1.77
2022-08-10T01:37:43.838Z,1.90
2022-08-10T01:38:57.884Z,1.90
2022-08-10T01:40:04.495Z,1.95
2022-08-10T01:41:12.273Z,1.70
2022-08-10T01:42:18.851Z,1.73
2022-08-10T01:43:23.634Z,1.63
2022-08-10T01:44:44.930Z,1.75
2022-08-10T01:45:53.721Z,1.88
2022-08-10T01:47:22.375Z,2.08
2022-08-10T01:48:34.362Z,1.80
2022-08-10T01:49:36.719Z,2.00
2022-08-10T01:51:00.270Z,1.80
2022-08-10T01:52:05.412Z,1.77
2022-08-10T01:53:15.806Z,1.90
2022-08-10T01:54:24.440Z,1.90
2022-08-10T01:55:27.954Z,1.60
2022-08-10T01:56:36.568Z,1.70
2022-08-10T01:57:42.100Z,2.00
2022-08-10T01:58:46.454Z,2.10
2022-08-10T01:59:54.515Z,1.88
2022-08-10T02:01:04.483Z,1.80
2022-08-10T02:02:10.090Z,1.75
2022-08-10T02:03:14.559Z,1.83
2022-08-10T02:04:19.544Z,1.80
2022-08-10T02:05:24.846Z,1.85
2022-08-10T02:06:30.827Z,1.88
2022-08-10T02:07:37.858Z,1.73
2022-08-10T02:08:42.563Z,1.80
2022-08-10T02:09:48.734Z,2.17
2022-08-10T02:10:52.765Z,1.90
2022-08-10T02:12:08.312Z,2.05
2022-08-10T02:13:14.805Z,1.73
2022-08-10T02:14:22.601Z,1.70
2022-08-10T02:15:29.000Z,1.73
2022-08-10T02:16:32.646Z,1.73
2022-08-10T02:17:57.625Z,1.80
2022-08-10T02:19:02.379Z,1.90
2022-08-10T02:20:18.142Z,1.92
2022-08-10T02:21:22.553Z,1.80
2022-08-10T02:22:36.659Z,1.80
2022-08-10T02:23:43.218Z,1.83
2022-08-10T02:24:47.017Z,1.73
2022-08-10T02:25:51.913Z,1.63
2022-08-10T02:26:58.008Z,1.80
2022-08-10T02:28:04.436Z,1.50
2022-08-10T02:29:08.717Z,1.98
2022-08-10T02:30:12.641Z,1.67
2022-08-10T02:31:18.513Z,1.80
2022-08-10T02:32:37.798Z,1.73
2022-08-10T02:33:56.642Z,1.65
2022-08-10T02:35:03.062Z,2.03
2022-08-10T02:36:08.798Z,1.75
2022-08-10T02:37:13.505Z,1.90
2022-08-10T02:38:19.993Z,1.65
2022-08-10T02:39:24.640Z,2.13
2022-08-10T02:45:02.450Z,1.83
2022-08-10T02:45:20.243Z,1.60
2022-08-10T02:45:25.867Z,2.15
2022-08-10T02:45:30.720Z,1.67
2022-08-10T02:46:41.819Z,2.17
2022-08-10T02:47:52.799Z,2.55
2022-08-10T02:49:03.475Z,2.13
2022-08-10T02:50:27.464Z,2.10
2022-08-10T02:52:08.190Z,2.00
2022-08-10T02:53:54.810Z,1.70
2022-08-10T02:54:57.423Z,1.92
2022-08-10T02:56:12.339Z,2.08
2022-08-10T02:57:22.937Z,2.17
2022-08-10T02:58:33.566Z,2.03
2022-08-10T02:59:44.500Z,2.25
2022-08-10T03:00:50.974Z,2.17
2022-08-10T03:01:57.720Z,2.45
2022-08-10T03:03:01.973Z,2.00
2022-08-10T03:04:16.504Z,2.10
2022-08-10T03:05:21.776Z,1.80
2022-08-10T03:06:30.413Z,2.40
2022-08-10T03:07:54.038Z,1.77
2022-08-10T03:08:58.399Z,1.80
2022-08-10T03:10:02.324Z,1.77
2022-08-10T03:11:10.071Z,1.95
2022-08-10T03:12:36.536Z,1.85
2022-08-10T03:13:37.821Z,1.77
2022-08-10T03:14:41.832Z,2.15
2022-08-10T03:15:46.181Z,1.80
2022-08-10T03:16:50.809Z,1.95
2022-08-10T03:17:58.335Z,1.85
2022-08-10T03:19:05.174Z,1.90
2022-08-10T03:20:38.400Z,1.67
2022-08-10T03:21:32.349Z,1.80
2022-08-10T03:22:36.329Z,1.83
2022-08-10T03:23:41.366Z,1.90
2022-08-10T03:24:45.629Z,1.70
2022-08-10T03:25:53.833Z,1.90
2022-08-10T03:26:57.764Z,1.70
2022-08-10T03:28:00.911Z,1.58
2022-08-10T03:29:04.814Z,1.60
2022-08-10T03:30:31.705Z,1.77
2022-08-10T03:31:33.001Z,1.75
2022-08-10T03:32:36.137Z,1.40
2022-08-10T03:33:41.272Z,1.65
2022-08-10T03:34:44.046Z,1.60
2022-08-10T03:36:42.926Z,1.77
2022-08-10T03:37:08.645Z,1.85
2022-08-10T03:38:11.018Z,1.55
2022-08-10T03:39:13.673Z,1.70
2022-08-10T03:40:16.171Z,1.65
2022-08-10T03:41:23.744Z,2.30
2022-08-10T03:42:28.545Z,1.80
2022-08-10T03:43:31.431Z,1.67
2022-08-10T03:44:35.938Z,1.88
2022-08-10T03:45:48.478Z,1.70
2022-08-10T03:47:01.057Z,1.83
2022-08-10T03:48:05.519Z,2.00
2022-08-10T03:49:09.202Z,1.77
2022-08-10T03:50:27.943Z,1.65
2022-08-10T03:51:37.115Z,2.10
2022-08-10T03:52:39.686Z,1.83
2022-08-10T03:54:02.759Z,2.08
2022-08-10T03:56:30.017Z,2.10
2022-08-10T03:57:31.028Z,2.05
2022-08-10T03:58:33.755Z,2.03
2022-08-10T03:59:36.977Z,1.90
2022-08-10T04:00:40.501Z,2.03
2022-08-10T04:02:52.387Z,2.10
2022-08-10T04:03:09.647Z,2.58
2022-08-10T04:04:15.480Z,2.03
2022-08-10T04:05:21.548Z,2.00
2022-08-10T04:06:24.030Z,2.20
2022-08-10T04:07:26.867Z,2.05
2022-08-10T04:08:29.347Z,1.80
2022-08-10T04:09:54.499Z,2.08
2022-08-10T04:10:57.204Z,2.28
2022-08-10T04:11:59.787Z,2.13
2022-08-10T04:13:02.280Z,1.90
2022-08-10T04:14:04.728Z,2.35
2022-08-10T04:15:07.492Z,2.13
2022-08-10T04:16:09.941Z,1.90
2022-08-10T04:17:14.150Z,2.33
2022-08-10T04:18:16.622Z,1.92
2022-08-10T04:19:20.210Z,2.08
2022-08-10T04:20:51.846Z,2.25
2022-08-10T04:22:05.855Z,2.35
2022-08-10T04:23:12.221Z,1.95
2022-08-10T04:24:26.995Z,2.55
2022-08-10T04:25:36.309Z,2.00
2022-08-10T04:26:39.815Z,2.25
2022-08-10T04:27:43.302Z,2.03
2022-08-10T04:28:45.756Z,2.47
2022-08-10T04:29:50.681Z,2.10
2022-08-10T04:30:55.921Z,2.05
2022-08-10T04:32:00.398Z,2.10
2022-08-10T04:33:05.369Z,2.00
2022-08-10T04:34:08.691Z,1.80
2022-08-10T04:35:12.265Z,2.05
2022-08-10T04:36:16.937Z,2.22
2022-08-10T04:37:21.418Z,2.40
2022-08-10T04:38:26.355Z,2.30
2022-08-10T04:39:29.367Z,2.20
2022-08-10T04:40:31.902Z,2.00
2022-08-10T04:41:35.916Z,2.10
2022-08-10T04:42:38.553Z,2.00
2022-08-10T04:43:40.927Z,1.60
2022-08-10T04:44:43.614Z,2.00
2022-08-10T04:45:48.866Z,2.05
2022-08-10T04:46:55.782Z,1.95
2022-08-10T04:48:03.194Z,2.00
2022-08-10T04:49:05.774Z,1.80
2022-08-10T04:50:28.054Z,1.85
2022-08-10T04:51:30.329Z,2.05
2022-08-10T04:52:33.028Z,1.60
2022-08-10T04:54:05.534Z,1.70
2022-08-10T04:54:57.828Z,2.00
2022-08-10T04:56:00.264Z,2.00
2022-08-10T04:57:02.755Z,1.88
2022-08-10T04:58:05.298Z,1.73
2022-08-10T04:59:10.322Z,1.90
2022-08-10T05:00:19.203Z,1.83
2022-08-10T05:01:24.772Z,1.70
2022-08-10T05:02:38.867Z,1.73
2022-08-10T05:04:35.660Z,1.80
2022-08-10T05:05:04.238Z,2.10
2022-08-10T05:06:06.949Z,1.52
2022-08-10T05:07:12.198Z,2.17
2022-08-10T05:08:19.427Z,2.10
2022-08-10T05:09:21.860Z,2.00
2022-08-10T05:10:24.426Z,2.15
2022-08-10T05:11:26.705Z,1.80
2022-08-10T05:12:29.465Z,2.13
2022-08-10T05:13:32.320Z,1.88
2022-08-10T05:14:35.168Z,2.00
2022-08-10T05:15:37.739Z,2.00
2022-08-10T05:16:39.986Z,2.03
2022-08-10T05:18:03.246Z,1.60
2022-08-10T05:19:05.504Z,2.08
2022-08-10T05:20:10.242Z,1.80
2022-08-10T05:21:12.710Z,1.88
2022-08-10T05:22:37.733Z,1.65
2022-08-10T05:23:40.292Z,1.85
2022-08-10T05:24:42.702Z,1.85
2022-08-10T05:25:45.017Z,1.85
2022-08-10T05:27:00.251Z,1.80
2022-08-10T05:28:09.735Z,1.83
2022-08-10T05:29:12.067Z,1.65
2022-08-10T05:30:19.070Z,1.70
2022-08-10T05:31:22.445Z,1.50
2022-08-10T05:32:26.807Z,1.73
2022-08-10T05:33:30.020Z,1.50
2022-08-10T05:34:32.293Z,1.50
2022-08-10T05:35:51.945Z,1.70
2022-08-10T05:36:58.275Z,1.60
2022-08-10T05:38:11.817Z,1.42
2022-08-10T05:39:18.721Z,1.70
2022-08-10T05:40:31.695Z,1.48
2022-08-10T05:41:35.344Z,1.65
2022-08-10T05:42:38.054Z,1.70
2022-08-10T05:43:41.052Z,1.50
2022-08-10T05:44:44.739Z,1.30
2022-08-10T05:46:16.756Z,1.60
2022-08-10T05:47:12.866Z,1.38
2022-08-10T05:48:41.956Z,1.70
2022-08-10T05:49:40.548Z,1.60
2022-08-10T05:50:44.269Z,1.23
2022-08-10T05:51:48.091Z,1.48
2022-08-10T05:52:52.315Z,1.60
2022-08-10T05:54:01.104Z,1.55
2022-08-10T05:55:09.765Z,1.60
2022-08-10T05:56:12.606Z,1.48
2022-08-10T05:57:16.653Z,1.58
2022-08-10T05:58:19.681Z,1.50
2022-08-10T06:00:35.341Z,1.65
2022-08-10T06:01:00.727Z,1.73
2022-08-10T06:02:31.681Z,1.60
2022-08-10T06:03:47.696Z,1.85
2022-08-10T06:04:52.956Z,1.30
2022-08-10T06:05:59.389Z,1.70
2022-08-10T06:07:07.683Z,1.65
2022-08-10T06:08:23.074Z,1.70
2022-08-10T06:09:28.691Z,1.70
2022-08-10T06:10:35.483Z,1.42
2022-08-10T06:12:24.611Z,1.67
2022-08-10T06:13:29.950Z,1.30
2022-08-10T06:14:59.969Z,1.60
2022-08-10T06:16:09.908Z,1.80
2022-08-10T06:17:13.101Z,1.38
2022-08-10T06:18:15.959Z,1.60
2022-08-10T06:19:19.238Z,1.60
2022-08-10T06:20:22.136Z,1.38
2022-08-10T06:21:25.232Z,1.63
2022-08-10T06:22:30.161Z,1.50
2022-08-10T06:23:33.536Z,1.40
2022-08-10T06:25:04.582Z,1.58
2022-08-10T06:26:11.295Z,1.63
2022-08-10T06:27:16.872Z,1.50
2022-08-10T06:28:25.877Z,1.60
2022-08-10T06:29:32.627Z,1.30
2022-08-10T06:30:37.120Z,1.75
2022-08-10T06:31:47.982Z,1.80
2022-08-10T06:32:53.569Z,1.73
2022-08-10T06:33:57.098Z,1.60
2022-08-10T06:35:01.408Z,1.70
2022-08-10T06:36:07.693Z,1.83
2022-08-10T06:37:12.738Z,1.98
2022-08-10T06:38:17.139Z,1.98
2022-08-10T06:39:33.425Z,1.70
2022-08-10T06:40:40.767Z,1.70
2022-08-10T06:42:01.394Z,1.60
2022-08-10T06:43:15.670Z,1.73
2022-08-10T06:44:26.504Z,1.50
2022-08-10T06:45:39.667Z,1.90
2022-08-10T06:46:48.423Z,1.80
2022-08-10T06:48:28.125Z,1.63
2022-08-10T06:49:33.171Z,1.58
2022-08-10T06:50:56.033Z,1.83
2022-08-10T06:52:02.752Z,1.77
2022-08-10T06:53:18.431Z,1.30
2022-08-10T06:54:27.466Z,1.63
2022-08-10T06:55:40.202Z,1.60
2022-08-10T06:58:23.739Z,1.63
2022-08-10T06:59:41.646Z,1.75
2022-08-10T07:00:45.650Z,1.88
2022-08-10T07:01:53.364Z,1.83
2022-08-10T07:03:01.952Z,1.75
2022-08-10T07:04:15.995Z,1.80
2022-08-10T07:05:25.211Z,1.50
2022-08-10T07:06:29.687Z,1.70
2022-08-10T07:07:37.502Z,1.38
2022-08-10T07:08:41.750Z,1.70
2022-08-10T07:09:45.827Z,1.60
2022-08-10T07:10:49.836Z,1.58
2022-08-10T07:11:53.395Z,1.55
2022-08-10T07:13:03.047Z,1.50
2022-08-10T07:14:15.316Z,1.77
2022-08-10T07:15:23.115Z,1.85
2022-08-10T07:16:48.041Z,1.70
2022-08-10T07:17:55.088Z,1.60
2022-08-10T07:19:01.786Z,1.65
2022-08-10T07:20:12.120Z,1.73
2022-08-10T07:21:18.087Z,1.50
2022-08-10T07:23:01.352Z,1.67
2022-08-10T07:23:58.542Z,1.50
2022-08-10T07:25:06.934Z,1.85
2022-08-10T07:26:11.600Z,1.70
2022-08-10T07:27:15.812Z,2.10
2022-08-10T07:28:21.037Z,1.60
2022-08-10T07:29:53.290Z,1.85
2022-08-10T07:30:53.618Z,1.50
2022-08-10T07:31:57.971Z,1.55
2022-08-10T07:33:02.948Z,1.60
2022-08-10T07:34:07.303Z,1.70
2022-08-10T07:35:14.259Z,1.88
2022-08-10T07:36:21.820Z,1.65
2022-08-10T07:37:27.755Z,1.60
2022-08-10T07:38:33.502Z,1.50
2022-08-10T07:39:58.499Z,1.50
2022-08-10T07:41:04.041Z,1.42
2022-08-10T07:42:10.143Z,1.90
2022-08-10T07:43:15.246Z,1.60
2022-08-10T07:44:19.296Z,1.73
2022-08-10T07:45:22.245Z,1.50
2022-08-10T07:46:28.336Z,1.38
2022-08-10T07:47:52.396Z,1.85
2022-08-10T07:49:19.838Z,1.83
2022-08-10T07:50:33.124Z,1.50
2022-08-10T07:51:40.219Z,1.35
2022-08-10T07:52:44.108Z,1.50
2022-08-10T07:53:52.008Z,1.30
2022-08-10T07:54:56.568Z,1.55
2022-08-10T07:56:16.822Z,1.30
2022-08-10T07:57:32.464Z,1.45
2022-08-10T07:58:52.605Z,1.70
2022-08-10T08:00:06.841Z,1.52
2022-08-10T08:01:24.892Z,1.83
2022-08-10T08:02:44.762Z,1.25
2022-08-10T08:04:10.696Z,1.27
2022-08-10T08:05:55.106Z,2.10
2022-08-10T08:06:49.537Z,1.55
2022-08-10T08:07:55.222Z,1.40
2022-08-10T08:09:00.686Z,1.35
2022-08-10T08:10:05.300Z,1.40
2022-08-10T08:11:25.745Z,1.33
2022-08-10T08:12:36.642Z,1.30
2022-08-10T08:13:40.663Z,1.33
2022-08-10T08:14:44.686Z,1.25
2022-08-10T08:16:18.352Z,1.40
2022-08-10T08:17:24.762Z,1.30
2022-08-10T08:18:41.906Z,1.23
2022-08-10T08:20:04.785Z,1.60
2022-08-10T08:24:08.086Z,1.60
2022-08-10T08:24:30.497Z,1.50
2022-08-10T08:24:30.561Z,1.30
2022-08-10T08:25:34.276Z,1.48
2022-08-10T08:26:39.555Z,1.90
2022-08-10T08:27:47.618Z,1.48
2022-08-10T08:28:52.486Z,1.63
2022-08-10T08:29:55.946Z,1.55
2022-08-10T08:30:59.412Z,1.65
2022-08-10T08:32:04.522Z,1.35
2022-08-10T08:33:09.925Z,1.27
2022-08-10T08:34:27.875Z,1.17
2022-08-10T08:35:32.766Z,1.63
2022-08-10T08:36:39.975Z,1.30
2022-08-10T08:38:32.123Z,1.70
2022-08-10T08:39:12.578Z,1.40
2022-08-10T08:40:22.251Z,1.33
2022-08-10T08:41:50.921Z,1.30
2022-08-10T08:43:28.470Z,1.10
2022-08-10T08:44:54.627Z,1.55
2022-08-10T08:46:28.701Z,1.30
2022-08-10T08:48:04.397Z,1.40
2022-08-10T08:50:05.210Z,1.15
2022-08-10T08:50:57.698Z,1.40
2022-08-10T08:52:18.591Z,1.42
2022-08-10T08:54:01.077Z,1.05
2022-08-10T08:56:04.063Z,1.30
2022-08-10T08:56:48.275Z,1.30
2022-08-10T08:58:23.578Z,1.40
2022-08-10T09:01:05.547Z,1.33
2022-08-10T09:02:55.789Z,1.45
2022-08-10T09:04:22.630Z,1.33
2022-08-10T09:06:03.667Z,1.20
2022-08-10T09:08:00.291Z,1.25
2022-08-10T09:09:23.428Z,1.48
2022-08-10T09:10:51.268Z,1.55
2022-08-10T09:12:08.425Z,1.45
2022-08-10T09:13:37.028Z,1.20
2022-08-10T09:14:50.159Z,1.50
2022-08-10T09:16:17.146Z,1.15
2022-08-10T09:18:02.552Z,1.60
2022-08-10T09:19:31.843Z,1.40
2022-08-10T09:20:40.831Z,1.20
2022-08-10T09:21:59.132Z,1.10
2022-08-10T09:24:04.919Z,1.25
2022-08-10T09:24:47.160Z,1.05
2022-08-10T09:25:55.415Z,1.25
2022-08-10T09:27:04.211Z,1.38
2022-08-10T09:28:17.087Z,1.17
2022-08-10T09:29:26.748Z,1.30
2022-08-10T09:30:40.555Z,1.45
2022-08-10T09:32:54.356Z,1.70
2022-08-10T09:36:22.799Z,1.30
2022-08-10T09:36:26.785Z,1.67
2022-08-10T09:36:31.701Z,1.30
2022-08-10T09:38:01.706Z,1.10
2022-08-10T09:40:06.667Z,1.30
2022-08-10T09:41:24.487Z,1.20
2022-08-10T09:42:44.128Z,1.20
2022-08-10T09:43:57.204Z,1.40
2022-08-10T09:45:12.687Z,1.00
2022-08-10T09:46:38.642Z,1.13
2022-08-10T09:48:02.793Z,1.10
2022-08-10T09:49:17.355Z,1.55
2022-08-10T09:51:05.455Z,1.35
2022-08-10T09:52:18.213Z,1.33
2022-08-10T09:53:35.170Z,1.40
2022-08-10T09:54:58.129Z,1.10
2022-08-10T09:57:44.098Z,1.20
2022-08-10T09:59:26.816Z,1.40
2022-08-10T10:00:41.872Z,1.48
2022-08-10T10:02:15.515Z,1.30
2022-08-10T10:03:29.770Z,1.95
2022-08-10T10:04:53.436Z,1.20
2022-08-10T10:06:18.507Z,1.15
2022-08-10T10:07:28.757Z,1.38
2022-08-10T10:08:58.270Z,1.00
2022-08-10T10:10:19.797Z,1.50
2022-08-10T10:11:35.489Z,1.25
2022-08-10T10:13:01.973Z,1.02
2022-08-10T10:14:26.842Z,1.02
2022-08-10T10:15:47.514Z,1.40
2022-08-10T10:17:04.304Z,1.25
2022-08-10T10:18:14.383Z,1.40
2022-08-10T10:19:54.269Z,1.30
2022-08-10T10:21:08.056Z,1.42
2022-08-10T10:24:20.261Z,1.30
2022-08-10T10:25:51.531Z,1.50
2022-08-10T10:27:03.617Z,1.92
2022-08-10T10:28:11.380Z,1.10
2022-08-10T10:29:57.151Z,1.40
2022-08-10T10:31:44.744Z,1.30
2022-08-10T10:33:17.502Z,1.20
2022-08-10T10:34:55.354Z,1.02
2022-08-10T10:36:00.002Z,0.90
2022-08-10T10:37:06.544Z,1.38
2022-08-10T10:38:12.552Z,1.27
2022-08-10T10:39:26.092Z,1.20
2022-08-10T10:41:01.565Z,1.05
2022-08-10T10:42:46.874Z,1.70
2022-08-10T10:44:31.685Z,1.20
2022-08-10T10:46:04.553Z,1.25
2022-08-10T10:47:19.113Z,1.15
2022-08-10T10:48:48.087Z,0.90
2022-08-10T10:50:08.967Z,1.08
2022-08-10T10:51:36.819Z,1.05
2022-08-10T10:53:03.978Z,1.30
2022-08-10T10:54:32.732Z,1.00
2022-08-10T10:56:15.133Z,1.58
2022-08-10T10:58:00.478Z,1.15
2022-08-10T10:59:56.345Z,1.25
2022-08-10T11:01:26.467Z,1.23
2022-08-10T11:02:44.019Z,1.30
2022-08-10T11:04:15.945Z,1.20
2022-08-10T11:05:48.194Z,1.05
2022-08-10T11:07:21.815Z,1.27
2022-08-10T11:08:31.281Z,0.95
2022-08-10T11:10:08.696Z,1.20
2022-08-10T11:11:27.038Z,1.38
2022-08-10T11:12:50.819Z,1.27
2022-08-10T11:14:26.588Z,1.10
2022-08-10T11:15:49.568Z,1.25
2022-08-10T11:16:58.605Z,1.00
2022-08-10T11:18:10.277Z,1.17
2022-08-10T11:20:00.489Z,1.35
2022-08-10T11:21:30.777Z,1.00
2022-08-10T11:22:36.911Z,1.13
2022-08-10T11:24:48.457Z,1.00
2022-08-10T11:25:31.961Z,1.40
2022-08-10T11:26:43.524Z,1.40
2022-08-10T11:28:10.662Z,1.15
2022-08-10T11:29:25.261Z,0.93
2022-08-10T11:30:44.846Z,0.98
2022-08-10T11:32:03.241Z,1.30
2022-08-10T11:33:32.742Z,1.25
2022-08-10T11:35:11.236Z,1.00
2022-08-10T11:36:31.296Z,2.35
2022-08-10T11:38:31.468Z,1.08
2022-08-10T11:39:21.628Z,1.00
2022-08-10T11:40:36.275Z,1.20
2022-08-10T11:42:09.983Z,1.10
2022-08-10T11:43:27.400Z,1.20
2022-08-10T11:44:57.654Z,1.02
2022-08-10T11:46:27.989Z,1.20
2022-08-10T11:47:39.278Z,1.20
2022-08-10T11:48:54.869Z,1.30
2022-08-10T11:50:11.517Z,1.48
2022-08-10T11:51:30.566Z,1.30
2022-08-10T11:53:14.519Z,1.17
2022-08-10T11:54:34.919Z,1.05
2022-08-10T11:55:37.482Z,1.30
2022-08-10T11:56:48.753Z,1.48
2022-08-10T11:57:55.962Z,1.02
2022-08-10T11:59:17.653Z,1.25
2022-08-10T12:00:20.486Z,1.00
2022-08-10T12:01:30.427Z,1.35
2022-08-10T12:02:40.904Z,1.02
2022-08-10T12:03:45.675Z,1.10
2022-08-10T12:04:52.688Z,0.98
2022-08-10T12:05:56.000Z,1.02
2022-08-10T12:07:00.350Z,1.10
2022-08-10T12:10:07.419Z,0.95
2022-08-10T12:10:08.982Z,1.38
2022-08-10T12:10:51.931Z,1.20
2022-08-10T12:11:54.367Z,1.55
2022-08-10T12:13:22.448Z,1.20
2022-08-10T12:14:32.369Z,1.10
2022-08-10T12:16:05.288Z,0.90
2022-08-10T12:17:24.097Z,0.98
2022-08-10T12:18:46.342Z,1.13
2022-08-10T12:20:09.884Z,0.90
2022-08-10T12:21:21.596Z,1.10
2022-08-10T12:22:31.620Z,1.10
2022-08-10T12:23:48.461Z,1.10
2022-08-10T12:25:11.237Z,1.27
2022-08-10T12:26:54.944Z,1.13
2022-08-10T12:28:05.263Z,1.27
2022-08-10T12:29:25.422Z,0.95
2022-08-10T12:30:34.173Z,0.90
2022-08-10T12:31:58.068Z,0.93
2022-08-10T12:33:32.987Z,1.42
2022-08-10T12:35:27.824Z,1.23
2022-08-10T12:36:41.434Z,1.27
2022-08-10T12:37:43.834Z,1.20
2022-08-10T12:39:01.782Z,1.10
2022-08-10T12:41:59.814Z,1.00
2022-08-10T12:43:13.230Z,1.63
2022-08-10T12:44:53.289Z,1.08
2022-08-10T12:46:14.329Z,1.23
2022-08-10T12:47:28.015Z,0.88
2022-08-10T12:48:43.900Z,1.10
2022-08-10T12:50:29.322Z,0.98
2022-08-10T12:51:33.548Z,0.90
2022-08-10T12:52:50.259Z,1.10
2022-08-10T12:54:07.008Z,1.10
2022-08-10T12:55:12.351Z,1.40
2022-08-10T12:56:45.467Z,1.20
2022-08-10T12:57:53.900Z,1.20
2022-08-10T12:59:01.314Z,1.20
2022-08-10T13:00:09.921Z,1.00
2022-08-10T13:01:24.885Z,1.27
2022-08-10T13:02:45.225Z,1.40
2022-08-10T13:04:22.663Z,1.10
2022-08-10T13:05:25.500Z,1.38
2022-08-10T13:06:30.495Z,1.40
2022-08-10T13:08:04.019Z,1.45
2022-08-10T13:09:08.674Z,1.08
2022-08-10T13:10:17.045Z,1.00
2022-08-10T13:12:37.014Z,1.10
2022-08-10T13:12:52.370Z,1.10
2022-08-10T13:14:01.955Z,1.10
2022-08-10T13:15:45.621Z,0.90
2022-08-10T13:16:33.670Z,1.30
2022-08-10T13:17:42.763Z,1.00
2022-08-10T13:18:46.915Z,1.17
2022-08-10T13:19:55.337Z,1.23
2022-08-10T13:21:20.074Z,1.25
2022-08-10T13:22:27.918Z,1.17
2022-08-10T13:23:34.013Z,1.20
2022-08-10T13:24:55.779Z,1.10
2022-08-10T13:26:03.577Z,1.23
2022-08-10T13:27:25.584Z,1.50
2022-08-10T13:28:45.300Z,1.73
2022-08-10T13:30:03.440Z,1.70
2022-08-10T13:31:16.716Z,1.20
2022-08-10T13:32:27.302Z,1.10
2022-08-10T13:34:39.289Z,1.27
2022-08-10T13:35:07.047Z,1.00
2022-08-10T13:36:10.860Z,1.10
2022-08-10T13:37:21.223Z,1.30
2022-08-10T13:38:25.329Z,1.20
2022-08-10T13:39:59.714Z,1.00
2022-08-10T13:41:04.594Z,1.30
2022-08-10T13:42:11.224Z,0.93
2022-08-10T13:43:19.834Z,1.30
2022-08-10T13:44:42.068Z,1.48
2022-08-10T13:45:50.043Z,1.20
2022-08-10T13:46:55.754Z,1.27
2022-08-10T13:48:14.464Z,1.13
2022-08-10T13:49:19.377Z,1.00
2022-08-10T13:50:33.733Z,1.30
2022-08-10T13:51:57.427Z,1.13
2022-08-10T13:53:01.753Z,1.27
2022-08-10T13:54:07.697Z,1.00
2022-08-10T13:55:16.658Z,1.30
2022-08-10T13:56:21.286Z,1.20
2022-08-10T13:57:30.284Z,1.00
2022-08-10T13:58:36.414Z,1.23
2022-08-10T14:00:35.341Z,1.20
2022-08-10T14:01:36.932Z,1.10
2022-08-10T14:02:41.869Z,1.40
2022-08-10T14:03:46.127Z,1.10
2022-08-10T14:04:49.686Z,1.27
2022-08-10T14:05:55.130Z,1.20
2022-08-10T14:07:00.630Z,1.40
2022-08-10T14:08:05.801Z,1.50
2022-08-10T14:09:12.932Z,1.23
2022-08-10T14:10:17.882Z,1.00
2022-08-10T14:11:42.337Z,1.10
2022-08-10T14:12:47.309Z,1.30
2022-08-10T14:13:57.035Z,1.00
2022-08-10T14:15:05.212Z,1.20
2022-08-10T14:16:10.868Z,1.10
2022-08-10T14:17:17.857Z,0.90
2022-08-10T14:18:21.542Z,1.02
2022-08-10T14:19:27.650Z,1.08
2022-08-10T14:20:33.661Z,0.90
2022-08-10T14:21:41.112Z,1.23
2022-08-10T14:22:43.960Z,1.10
2022-08-10T14:23:52.289Z,1.10
2022-08-10T14:25:06.404Z,1.30
2022-08-10T14:26:11.820Z,1.35
2022-08-10T14:27:21.048Z,1.15
2022-08-10T14:28:38.391Z,1.17
2022-08-10T14:29:47.167Z,0.90
2022-08-10T14:30:58.966Z,1.00
2022-08-10T14:32:04.452Z,1.00
2022-08-10T14:33:08.273Z,0.98
2022-08-10T14:34:13.414Z,1.10
2022-08-10T14:36:20.081Z,1.20
2022-08-10T14:36:47.338Z,1.20
2022-08-10T14:37:55.822Z,1.25
2022-08-10T14:39:00.613Z,1.08
2022-08-10T14:40:06.397Z,1.13
2022-08-10T14:42:02.672Z,1.10
2022-08-10T14:43:06.419Z,0.90
2022-08-10T14:44:12.212Z,1.33
2022-08-10T14:45:26.577Z,1.20
2022-08-10T14:46:29.879Z,1.35
2022-08-10T14:48:02.799Z,1.10
2022-08-10T14:49:25.450Z,1.13
2022-08-10T14:50:32.239Z,1.52
2022-08-10T14:51:44.475Z,1.33
2022-08-10T14:52:48.680Z,1.48
2022-08-10T14:53:54.340Z,1.30
2022-08-10T14:55:04.443Z,1.30
2022-08-10T14:56:14.405Z,1.00
2022-08-10T14:57:18.264Z,1.00
2022-08-10T14:58:33.269Z,1.00
2022-08-10T15:00:24.816Z,1.30
2022-08-10T15:01:01.212Z,1.00
2022-08-10T15:02:40.473Z,1.10
2022-08-10T15:03:59.359Z,1.23
2022-08-10T15:04:56.212Z,1.10
2022-08-10T15:06:03.764Z,1.00
2022-08-10T15:07:21.080Z,1.00
2022-08-10T15:08:28.461Z,1.02
2022-08-10T15:10:00.565Z,1.30
2022-08-10T15:11:02.305Z,1.00
2022-08-10T15:12:15.671Z,1.13
2022-08-10T15:13:33.653Z,1.20
2022-08-10T15:14:43.553Z,1.10
2022-08-10T15:16:10.935Z,1.75
2022-08-10T15:18:14.271Z,1.10
2022-08-10T15:19:34.310Z,1.20
2022-08-10T15:20:42.739Z,1.00
2022-08-10T15:21:45.893Z,1.40
2022-08-10T15:22:50.887Z,1.30
2022-08-10T15:24:05.178Z,0.93
2022-08-10T15:25:18.675Z,1.10
2022-08-10T15:26:26.239Z,1.15
2022-08-10T15:27:54.936Z,1.00
2022-08-10T15:29:23.576Z,0.90
2022-08-10T15:30:32.943Z,1.40
2022-08-10T15:31:56.699Z,1.30
2022-08-10T15:33:57.844Z,1.40
2022-08-10T15:35:07.054Z,1.13
2022-08-10T15:36:34.023Z,0.90
2022-08-10T15:37:40.854Z,0.98
2022-08-10T15:38:46.348Z,1.25
2022-08-10T15:40:24.726Z,1.15
2022-08-10T15:41:57.491Z,1.30
2022-08-10T15:43:20.181Z,1.05
2022-08-10T15:44:44.160Z,1.00
2022-08-10T15:45:55.275Z,1.10
2022-08-10T15:47:02.366Z,1.20
2022-08-10T15:48:06.714Z,1.10
2022-08-10T15:49:23.579Z,1.00
2022-08-10T15:50:34.402Z,1.10
2022-08-10T15:51:58.298Z,0.93
2022-08-10T15:53:16.056Z,1.15
2022-08-10T15:54:33.839Z,0.95
2022-08-10T15:56:00.000Z,1.00
2022-08-10T15:57:13.039Z,1.30
2022-08-10T15:58:39.357Z,0.90
2022-08-10T15:59:47.281Z,1.05
2022-08-10T16:01:05.431Z,1.25
2022-08-10T16:02:31.661Z,1.17
2022-08-10T16:04:08.709Z,1.02
2022-08-10T16:05:16.964Z,1.10
2022-08-10T16:06:30.967Z,1.20
2022-08-10T16:07:49.213Z,1.10
2022-08-10T16:10:24.138Z,0.90
2022-08-10T16:10:28.613Z,0.82
2022-08-10T16:11:39.340Z,1.20
2022-08-10T16:13:50.663Z,0.95
2022-08-10T16:14:39.239Z,1.10
2022-08-10T16:15:43.149Z,1.00
2022-08-10T16:16:50.884Z,1.08
2022-08-10T16:18:02.312Z,1.20
2022-08-10T16:19:13.654Z,1.08
2022-08-10T16:20:33.248Z,0.90
2022-08-10T16:22:03.352Z,1.50
2022-08-10T16:23:36.541Z,1.00
2022-08-10T16:24:41.360Z,0.95
2022-08-10T16:25:53.564Z,1.00
2022-08-10T16:27:07.357Z,1.40
2022-08-10T16:28:11.308Z,1.30